Terminal Aerodrome Forecast
Issued by NWS

Home | Current Version | Previous Version | Text Only | Print | Product List | Glossary On
Versions: 1 2 3 4 5 6 7 8 9 10 11 12 13 14 15
000
FTUS46 KPDT 170500
TAFDLS
TAF
KDLS 170520Z 1706/1806 28010G20KT P6SM BKN150 OVC250
     FM171200 VRB05KT P6SM OVC250
     FM171600 33009KT P6SM BKN150
     FM172100 33008G15KT P6SM SCT090 OVC150=

USA.gov is the U.S. government's official web portal to all federal, state and local government web resources and services.